createdAt,value
2023-05-14T00:01:16.674Z,3.80
2023-05-14T00:03:43.635Z,3.90
2023-05-14T00:06:11.133Z,3.40
2023-05-14T00:08:37.724Z,3.50
2023-05-14T00:11:04.680Z,4.00
2023-05-14T00:13:31.238Z,3.70
2023-05-14T00:15:57.823Z,3.83
2023-05-14T00:18:24.853Z,3.40
2023-05-14T00:20:54.599Z,4.10
2023-05-14T00:23:22.058Z,3.67
2023-05-14T00:25:49.050Z,3.23
2023-05-14T00:28:15.919Z,3.77
2023-05-14T00:30:42.452Z,3.47
2023-05-14T00:33:09.144Z,3.83
2023-05-14T00:35:35.833Z,4.17
2023-05-14T00:38:03.750Z,4.27
2023-05-14T00:40:30.411Z,4.10
2023-05-14T00:42:57.801Z,3.83
2023-05-14T00:45:25.633Z,4.10
2023-05-14T00:47:53.927Z,4.23
2023-05-14T00:50:21.430Z,3.87
2023-05-14T00:52:49.009Z,3.90
2023-05-14T00:55:17.209Z,4.57
2023-05-14T00:57:44.548Z,3.57
2023-05-14T01:00:12.075Z,4.23
2023-05-14T01:02:38.909Z,3.67
2023-05-14T01:05:06.266Z,4.17
2023-05-14T01:07:44.995Z,3.80
2023-05-14T01:10:24.775Z,4.00
2023-05-14T01:13:18.285Z,3.40
2023-05-14T01:15:47.282Z,3.80
2023-05-14T01:18:18.054Z,4.77
2023-05-14T01:20:45.520Z,3.87
2023-05-14T01:23:12.109Z,3.83
2023-05-14T01:25:39.358Z,4.33
2023-05-14T01:28:19.357Z,4.17
2023-05-14T01:30:57.219Z,4.10
2023-05-14T01:33:27.759Z,3.80
2023-05-14T01:35:55.696Z,3.70
2023-05-14T01:38:24.151Z,3.50
2023-05-14T01:40:51.614Z,4.30
2023-05-14T01:43:19.017Z,4.03
2023-05-14T01:45:46.108Z,4.07
2023-05-14T01:48:12.850Z,3.80
2023-05-14T01:50:39.474Z,4.20
2023-05-14T01:53:06.405Z,3.60
2023-05-14T01:55:32.970Z,4.00
2023-05-14T01:57:59.773Z,4.10
2023-05-14T02:00:27.116Z,3.80
2023-05-14T02:02:54.259Z,4.33
2023-05-14T02:05:23.048Z,4.13
2023-05-14T02:07:49.754Z,4.57
2023-05-14T02:10:16.289Z,3.80
2023-05-14T02:12:42.938Z,4.27
2023-05-14T02:15:11.012Z,4.07
2023-05-14T02:17:38.103Z,4.77
2023-05-14T02:20:05.625Z,5.10
2023-05-14T02:22:45.487Z,4.50
2023-05-14T02:25:12.493Z,4.20
2023-05-14T02:27:39.052Z,4.20
2023-05-14T02:30:06.130Z,4.67
2023-05-14T02:32:33.426Z,4.73
2023-05-14T02:35:00.121Z,4.40
2023-05-14T02:37:26.894Z,4.27
2023-05-14T02:39:53.944Z,4.60
2023-05-14T02:42:22.628Z,4.00
2023-05-14T02:44:49.301Z,4.33
2023-05-14T02:47:16.023Z,5.10
2023-05-14T02:49:42.532Z,5.00
2023-05-14T02:52:09.052Z,4.77
2023-05-14T02:54:35.916Z,4.60
2023-05-14T02:57:02.593Z,4.80
2023-05-14T02:59:29.758Z,4.67
2023-05-14T03:01:58.060Z,3.83
2023-05-14T03:04:25.010Z,4.50
2023-05-14T03:06:51.556Z,5.13
2023-05-14T03:09:18.106Z,4.47
2023-05-14T03:11:44.681Z,4.43
2023-05-14T03:14:11.299Z,5.00
2023-05-14T03:16:38.349Z,4.53
2023-05-14T03:19:04.947Z,5.40
2023-05-14T03:21:32.113Z,4.60
2023-05-14T03:23:58.718Z,5.10
2023-05-14T03:26:25.700Z,4.77
2023-05-14T03:28:52.808Z,4.57
2023-05-14T03:31:19.367Z,4.43
2023-05-14T03:33:45.969Z,4.40
2023-05-14T03:36:12.474Z,5.33
2023-05-14T03:38:39.693Z,4.77
2023-05-14T03:41:06.303Z,5.20
2023-05-14T03:43:32.826Z,4.60
2023-05-14T03:46:00.148Z,5.10
2023-05-14T03:48:27.103Z,4.90
2023-05-14T03:50:53.811Z,5.50
2023-05-14T03:53:20.796Z,5.07
2023-05-14T03:55:47.418Z,4.80
2023-05-14T03:58:14.429Z,4.20
2023-05-14T04:00:44.203Z,4.30
2023-05-14T04:03:11.729Z,5.47
2023-05-14T04:05:38.401Z,5.00
2023-05-14T04:08:05.846Z,4.80
2023-05-14T04:10:32.810Z,4.30
2023-05-14T04:13:00.485Z,5.40
2023-05-14T04:15:31.548Z,4.90
2023-05-14T04:17:58.141Z,4.57
2023-05-14T04:20:24.954Z,5.20
2023-05-14T04:22:51.714Z,4.70
2023-05-14T04:25:18.528Z,5.00
2023-05-14T04:27:45.403Z,5.00
2023-05-14T04:30:12.475Z,4.80
2023-05-14T04:32:39.225Z,4.47
2023-05-14T04:35:06.634Z,4.63
2023-05-14T04:37:33.215Z,5.03
2023-05-14T04:39:59.808Z,4.20
2023-05-14T04:42:26.421Z,5.00
2023-05-14T04:44:53.021Z,4.40
2023-05-14T04:47:21.045Z,4.67
2023-05-14T04:49:47.894Z,4.27
2023-05-14T04:52:14.553Z,4.90
2023-05-14T04:54:41.570Z,4.43
2023-05-14T04:57:08.146Z,3.90
2023-05-14T04:59:34.750Z,4.73
2023-05-14T05:02:01.575Z,4.23
2023-05-14T05:04:28.133Z,3.80
2023-05-14T05:06:54.687Z,3.63
2023-05-14T05:09:21.201Z,4.00
2023-05-14T05:11:47.722Z,4.50
2023-05-14T05:14:14.268Z,4.03
2023-05-14T05:16:41.109Z,3.57
2023-05-14T05:19:07.728Z,4.20
2023-05-14T05:21:35.102Z,3.57
2023-05-14T05:24:01.966Z,3.90
2023-05-14T05:26:28.852Z,3.80
2023-05-14T05:28:55.488Z,3.00
2023-05-14T05:31:22.127Z,2.80
2023-05-14T05:33:48.847Z,3.07
2023-05-14T05:36:15.481Z,3.50
2023-05-14T05:38:42.379Z,2.90
2023-05-14T05:41:09.429Z,2.43
2023-05-14T05:43:35.945Z,2.73
2023-05-14T05:46:02.478Z,3.37
2023-05-14T05:48:29.058Z,2.93
2023-05-14T05:50:55.768Z,2.77
2023-05-14T05:53:24.918Z,3.00
2023-05-14T05:55:51.663Z,2.37
2023-05-14T05:58:19.073Z,2.20
2023-05-14T06:00:47.029Z,2.60
2023-05-14T06:03:14.771Z,2.83
2023-05-14T06:05:42.029Z,2.70
2023-05-14T06:08:08.670Z,2.60
2023-05-14T06:10:36.266Z,3.30
2023-05-14T06:13:03.024Z,2.60
2023-05-14T06:15:29.565Z,2.70
2023-05-14T06:17:56.173Z,2.47
2023-05-14T06:20:23.105Z,2.33
2023-05-14T06:22:49.883Z,2.22
2023-05-14T06:25:16.490Z,2.75
2023-05-14T06:27:43.548Z,2.65
2023-05-14T06:30:11.251Z,2.65
2023-05-14T06:32:37.905Z,2.97
2023-05-14T06:35:05.115Z,2.20
2023-05-14T06:37:31.791Z,1.83
2023-05-14T06:39:58.696Z,2.63
2023-05-14T06:42:26.338Z,1.88
2023-05-14T06:44:52.908Z,2.30
2023-05-14T06:47:19.447Z,2.30
2023-05-14T06:49:46.792Z,1.92
2023-05-14T06:52:13.585Z,1.92
2023-05-14T06:54:40.137Z,2.20
2023-05-14T06:57:06.795Z,2.80
2023-05-14T06:59:33.575Z,2.17
2023-05-14T07:02:00.159Z,2.42
2023-05-14T07:04:26.825Z,1.70
2023-05-14T07:06:53.433Z,2.17
2023-05-14T07:09:19.981Z,1.95
2023-05-14T07:11:46.519Z,1.80
2023-05-14T07:14:13.070Z,2.50
2023-05-14T07:16:40.219Z,1.65
2023-05-14T07:19:06.886Z,2.08
2023-05-14T07:21:33.521Z,2.00
2023-05-14T07:24:01.107Z,1.80
2023-05-14T07:26:27.640Z,1.90
2023-05-14T07:28:54.224Z,1.75
2023-05-14T07:31:20.815Z,2.50
2023-05-14T07:33:47.878Z,2.28
2023-05-14T07:36:14.482Z,2.10
2023-05-14T07:38:41.548Z,2.70
2023-05-14T07:41:08.055Z,2.22
2023-05-14T07:43:34.595Z,2.40
2023-05-14T07:46:01.107Z,2.47
2023-05-14T07:48:27.718Z,2.30
2023-05-14T07:50:54.733Z,2.30
2023-05-14T07:53:21.947Z,2.40
2023-05-14T07:55:48.775Z,2.33
2023-05-14T07:58:16.077Z,2.23
2023-05-14T08:00:42.598Z,2.00
2023-05-14T08:03:09.238Z,2.50
2023-05-14T08:05:35.904Z,2.27
2023-05-14T08:08:02.655Z,2.30
2023-05-14T08:10:29.663Z,2.10
2023-05-14T08:12:56.282Z,1.90
2023-05-14T08:15:24.582Z,1.90
2023-05-14T08:17:52.996Z,2.13
2023-05-14T08:20:19.498Z,2.80
2023-05-14T08:22:46.918Z,2.40
2023-05-14T08:25:13.615Z,2.37
2023-05-14T08:27:40.216Z,2.40
2023-05-14T08:30:07.280Z,2.27
2023-05-14T08:32:33.952Z,2.50
2023-05-14T08:35:00.644Z,2.60
2023-05-14T08:37:27.342Z,2.20
2023-05-14T08:39:53.842Z,2.67
2023-05-14T08:42:21.999Z,2.47
2023-05-14T08:44:53.130Z,3.33
2023-05-14T08:47:22.328Z,2.50
2023-05-14T08:49:54.759Z,2.20
2023-05-14T08:52:23.122Z,2.30
2023-05-14T08:54:52.681Z,2.40
2023-05-14T08:57:20.903Z,2.90
2023-05-14T08:59:48.750Z,2.70
2023-05-14T09:02:17.385Z,2.87
2023-05-14T09:04:44.815Z,2.80
2023-05-14T09:07:11.721Z,2.80
2023-05-14T09:09:38.621Z,2.57
2023-05-14T09:12:06.175Z,2.90
2023-05-14T09:14:33.283Z,2.77
2023-05-14T09:16:59.912Z,3.00
2023-05-14T09:19:26.898Z,2.47
2023-05-14T09:21:57.816Z,3.20
2023-05-14T09:24:31.548Z,2.13
2023-05-14T09:26:58.856Z,2.20
2023-05-14T09:29:30.152Z,2.30
2023-05-14T09:31:58.391Z,2.57
2023-05-14T09:34:26.116Z,2.77
2023-05-14T09:37:03.718Z,2.57
2023-05-14T09:39:31.099Z,2.70
2023-05-14T09:41:57.784Z,2.20
2023-05-14T09:44:25.247Z,2.53
2023-05-14T09:46:53.713Z,2.93
2023-05-14T09:49:21.025Z,2.57
2023-05-14T09:51:49.174Z,2.37
2023-05-14T09:54:16.526Z,2.37
2023-05-14T09:56:43.908Z,3.13
2023-05-14T09:59:10.870Z,3.10
2023-05-14T10:01:38.321Z,2.40
2023-05-14T10:04:07.674Z,2.73
2023-05-14T10:06:38.102Z,2.87
2023-05-14T10:09:09.685Z,2.60
2023-05-14T10:11:38.423Z,2.43
2023-05-14T10:14:18.234Z,2.60
2023-05-14T10:16:50.877Z,2.50
2023-05-14T10:19:19.958Z,2.40
2023-05-14T10:21:55.649Z,2.20
2023-05-14T10:24:24.313Z,2.57
2023-05-14T10:26:51.510Z,3.30
2023-05-14T10:29:18.045Z,2.47
2023-05-14T10:31:47.203Z,2.37
2023-05-14T10:34:46.217Z,2.90
2023-05-14T10:37:15.519Z,2.80
2023-05-14T10:39:43.215Z,2.77
2023-05-14T10:42:16.427Z,2.70
2023-05-14T10:44:48.408Z,2.93
2023-05-14T10:47:17.080Z,2.80
2023-05-14T10:49:45.748Z,2.90
2023-05-14T10:52:12.428Z,2.70
2023-05-14T10:54:39.638Z,2.20
2023-05-14T10:57:11.508Z,2.07
2023-05-14T10:59:41.783Z,2.33
2023-05-14T11:02:19.638Z,2.30
2023-05-14T11:04:54.423Z,2.40
2023-05-14T11:07:25.285Z,3.00
2023-05-14T11:09:53.220Z,2.80
2023-05-14T11:12:21.268Z,2.73
2023-05-14T11:14:47.857Z,2.43
2023-05-14T11:17:15.051Z,2.77
2023-05-14T11:19:43.789Z,2.30
2023-05-14T11:22:13.558Z,2.83
2023-05-14T11:24:40.883Z,2.57
2023-05-14T11:27:09.211Z,3.50
2023-05-14T11:29:36.780Z,3.90
2023-05-14T11:32:06.271Z,2.80
2023-05-14T11:34:34.616Z,3.30
2023-05-14T11:37:06.824Z,3.20
2023-05-14T11:39:36.238Z,2.73
2023-05-14T11:42:04.717Z,2.50
2023-05-14T11:44:32.607Z,2.87
2023-05-14T11:46:59.420Z,2.70
2023-05-14T11:49:31.706Z,2.93
2023-05-14T11:51:59.441Z,2.87
2023-05-14T11:54:29.832Z,2.20
2023-05-14T11:56:57.504Z,2.87
2023-05-14T11:59:27.850Z,2.37
2023-05-14T12:01:55.951Z,2.50
2023-05-14T12:04:22.914Z,2.30
2023-05-14T12:06:50.819Z,2.37
2023-05-14T12:09:21.217Z,2.40
2023-05-14T12:11:49.026Z,2.97
2023-05-14T12:14:17.371Z,2.43
2023-05-14T12:16:45.254Z,2.90
2023-05-14T12:19:15.234Z,2.80
2023-05-14T12:21:47.632Z,3.63
2023-05-14T12:24:17.745Z,3.00
2023-05-14T12:26:49.462Z,3.27
2023-05-14T12:29:16.795Z,2.90
2023-05-14T12:31:48.249Z,3.03
2023-05-14T12:34:15.917Z,3.20
2023-05-14T12:36:43.373Z,3.40
2023-05-14T12:39:11.066Z,3.03
2023-05-14T12:41:37.740Z,2.77
2023-05-14T12:44:05.249Z,3.03
2023-05-14T12:46:33.102Z,2.93
2023-05-14T12:48:59.778Z,2.57
2023-05-14T12:51:26.472Z,2.83
2023-05-14T12:53:54.187Z,2.70
2023-05-14T12:56:21.384Z,2.90
2023-05-14T12:58:48.170Z,2.60
2023-05-14T13:01:14.848Z,2.40
2023-05-14T13:03:41.595Z,3.60
2023-05-14T13:06:08.235Z,3.40
2023-05-14T13:08:35.315Z,2.37
2023-05-14T13:11:01.932Z,2.13
2023-05-14T13:13:28.621Z,2.40
2023-05-14T13:15:55.499Z,2.43
2023-05-14T13:18:22.271Z,2.43
2023-05-14T13:20:49.004Z,2.30
2023-05-14T13:23:16.081Z,2.53
2023-05-14T13:25:42.610Z,1.60
2023-05-14T13:28:09.620Z,2.00
2023-05-14T13:30:36.319Z,2.80
2023-05-14T13:33:03.115Z,1.90
2023-05-14T13:35:29.801Z,2.00
2023-05-14T13:37:56.883Z,2.00
2023-05-14T13:40:23.589Z,2.00
2023-05-14T13:42:50.269Z,2.00
2023-05-14T13:45:17.007Z,2.37
2023-05-14T13:47:44.346Z,2.10
2023-05-14T13:50:10.987Z,2.17
2023-05-14T13:52:38.945Z,2.37
2023-05-14T13:55:06.556Z,2.00
2023-05-14T13:57:33.278Z,1.60
2023-05-14T14:00:01.195Z,1.60
2023-05-14T14:02:33.536Z,1.97
2023-05-14T14:05:01.165Z,2.23
2023-05-14T14:07:28.067Z,2.30
2023-05-14T14:09:54.806Z,2.40
2023-05-14T14:12:21.580Z,2.77
2023-05-14T14:14:48.293Z,2.00
2023-05-14T14:17:14.987Z,2.33
2023-05-14T14:19:41.650Z,2.07
2023-05-14T14:22:08.340Z,2.27
2023-05-14T14:24:35.456Z,1.70
2023-05-14T14:27:02.328Z,2.30
2023-05-14T14:29:31.015Z,2.40
2023-05-14T14:31:57.752Z,2.10
2023-05-14T14:34:24.911Z,2.40
2023-05-14T14:36:51.553Z,2.93
2023-05-14T14:39:18.723Z,2.73
2023-05-14T14:41:45.507Z,2.63
2023-05-14T14:44:12.232Z,2.40
2023-05-14T14:46:38.992Z,2.40
2023-05-14T14:49:05.744Z,2.10
2023-05-14T14:51:33.004Z,2.40
2023-05-14T14:54:00.142Z,2.93
2023-05-14T14:56:27.231Z,2.50
2023-05-14T14:58:53.989Z,2.23
2023-05-14T15:01:22.699Z,2.70
2023-05-14T15:03:50.885Z,2.20
2023-05-14T15:06:17.597Z,2.50
2023-05-14T15:08:44.368Z,2.73
2023-05-14T15:11:14.109Z,3.30
2023-05-14T15:13:41.938Z,2.40
2023-05-14T15:16:08.886Z,3.10
2023-05-14T15:18:35.671Z,2.40
2023-05-14T15:21:02.376Z,3.00
2023-05-14T15:23:29.050Z,3.83
2023-05-14T15:25:56.196Z,2.60
2023-05-14T15:28:22.903Z,2.73
2023-05-14T15:30:49.596Z,2.80
2023-05-14T15:33:19.462Z,2.57
2023-05-14T15:35:46.369Z,3.37
2023-05-14T15:38:13.080Z,2.50
2023-05-14T15:40:41.155Z,2.80
2023-05-14T15:43:07.907Z,2.87
2023-05-14T15:45:34.560Z,2.80
2023-05-14T15:48:01.397Z,2.87
2023-05-14T15:50:28.288Z,2.83
2023-05-14T15:52:54.985Z,2.70
2023-05-14T15:55:21.725Z,2.80
2023-05-14T15:57:48.514Z,2.73
2023-05-14T16:00:16.286Z,2.60
2023-05-14T16:02:43.426Z,3.10
2023-05-14T16:05:10.295Z,3.00
2023-05-14T16:07:37.402Z,2.77
2023-05-14T16:10:04.851Z,2.77
2023-05-14T16:12:31.760Z,2.53
2023-05-14T16:14:58.713Z,2.60
2023-05-14T16:17:27.718Z,2.60
2023-05-14T16:19:56.336Z,3.23
2023-05-14T16:22:23.372Z,3.07
2023-05-14T16:24:50.070Z,2.57
2023-05-14T16:27:19.010Z,2.63
2023-05-14T16:29:46.155Z,2.90
2023-05-14T16:32:13.001Z,2.87
2023-05-14T16:34:39.772Z,2.90
2023-05-14T16:37:06.839Z,3.80
2023-05-14T16:39:33.511Z,3.10
2023-05-14T16:42:00.185Z,3.03
2023-05-14T16:44:28.042Z,2.63
2023-05-14T16:47:24.044Z,2.80
2023-05-14T16:49:50.901Z,2.80
2023-05-14T16:52:17.630Z,2.60
2023-05-14T16:54:44.269Z,2.80
2023-05-14T16:57:11.302Z,2.90
2023-05-14T16:59:38.323Z,3.10
2023-05-14T17:02:04.984Z,2.93
2023-05-14T17:04:33.318Z,2.73
2023-05-14T17:07:01.384Z,2.70
2023-05-14T17:09:28.065Z,3.10
2023-05-14T17:11:54.790Z,2.90
2023-05-14T17:14:22.033Z,2.37
2023-05-14T17:16:48.761Z,2.90
2023-05-14T17:19:15.688Z,2.83
2023-05-14T17:21:42.972Z,2.80
2023-05-14T17:24:10.211Z,3.73
2023-05-14T17:26:37.730Z,3.30
2023-05-14T17:29:04.865Z,3.00
2023-05-14T17:31:31.552Z,3.00
2023-05-14T17:33:58.830Z,3.00
2023-05-14T17:36:25.813Z,2.90
2023-05-14T17:38:52.534Z,3.27
2023-05-14T17:41:19.720Z,2.90
2023-05-14T17:43:47.051Z,2.70
2023-05-14T17:46:14.036Z,2.70
2023-05-14T17:48:40.812Z,2.83
2023-05-14T17:51:07.917Z,3.07
2023-05-14T17:53:34.611Z,3.07
2023-05-14T17:56:01.487Z,2.80
2023-05-14T17:58:28.549Z,2.73
2023-05-14T18:00:55.547Z,3.40
2023-05-14T18:03:22.387Z,2.73
2023-05-14T18:05:49.205Z,2.83
2023-05-14T18:08:15.903Z,2.70
2023-05-14T18:10:42.929Z,2.90
2023-05-14T18:13:10.032Z,3.03
2023-05-14T18:15:36.838Z,3.40
2023-05-14T18:18:03.896Z,2.40
2023-05-14T18:20:31.175Z,2.53
2023-05-14T18:22:59.120Z,2.97
2023-05-14T18:25:26.233Z,2.80
2023-05-14T18:27:53.817Z,2.50
2023-05-14T18:30:20.607Z,2.40
2023-05-14T18:32:47.482Z,2.80
2023-05-14T18:35:14.628Z,2.60
2023-05-14T18:37:41.729Z,2.57
2023-05-14T18:40:09.254Z,2.93
2023-05-14T18:42:35.957Z,2.40
2023-05-14T18:45:04.029Z,3.40
2023-05-14T18:47:32.586Z,3.13
2023-05-14T18:50:01.619Z,2.53
2023-05-14T18:52:28.704Z,3.50
2023-05-14T18:54:55.670Z,3.10
2023-05-14T18:57:22.506Z,2.93
2023-05-14T18:59:49.703Z,3.70
2023-05-14T19:02:16.587Z,3.20
2023-05-14T19:04:52.338Z,3.57
2023-05-14T19:07:20.866Z,3.53
2023-05-14T19:09:48.049Z,3.47
2023-05-14T19:12:14.870Z,3.50
2023-05-14T19:14:42.002Z,3.00
2023-05-14T19:17:08.713Z,3.30
2023-05-14T19:19:36.540Z,3.77
2023-05-14T19:22:03.709Z,3.37
2023-05-14T19:24:30.839Z,3.00
2023-05-14T19:26:57.713Z,2.93
2023-05-14T19:29:30.158Z,3.10
2023-05-14T19:31:57.001Z,3.70
2023-05-14T19:34:23.797Z,3.73
2023-05-14T19:36:50.736Z,3.73
2023-05-14T19:39:17.425Z,2.97
2023-05-14T19:41:44.198Z,3.13
2023-05-14T19:44:11.082Z,3.50
2023-05-14T19:46:37.926Z,3.37
2023-05-14T19:49:04.965Z,3.17
2023-05-14T19:51:31.691Z,3.23
2023-05-14T19:53:58.381Z,4.07
2023-05-14T19:56:27.135Z,3.43
2023-05-14T19:58:54.263Z,3.60
2023-05-14T20:01:21.116Z,2.97
2023-05-14T20:03:48.129Z,3.47
2023-05-14T20:06:14.870Z,3.27
2023-05-14T20:08:41.785Z,3.80
2023-05-14T20:11:08.446Z,3.23
2023-05-14T20:13:36.405Z,3.67
2023-05-14T20:16:03.322Z,3.20
2023-05-14T20:18:30.160Z,3.30
2023-05-14T20:20:57.182Z,3.03
2023-05-14T20:23:24.039Z,2.80
2023-05-14T20:25:51.575Z,3.50
2023-05-14T20:28:18.280Z,3.63
2023-05-14T20:30:45.074Z,3.70
2023-05-14T20:33:13.317Z,3.90
2023-05-14T20:35:43.714Z,3.50
2023-05-14T20:38:12.545Z,3.30
2023-05-14T20:40:39.711Z,3.60
2023-05-14T20:43:06.512Z,3.37
2023-05-14T20:45:34.988Z,3.40
2023-05-14T20:48:01.881Z,3.63
2023-05-14T20:50:28.715Z,4.20
2023-05-14T20:52:55.581Z,3.90
2023-05-14T20:55:22.343Z,3.73
2023-05-14T20:57:49.638Z,3.80
2023-05-14T21:00:16.731Z,4.20
2023-05-14T21:02:43.580Z,3.33
2023-05-14T21:05:10.980Z,4.00
2023-05-14T21:07:39.246Z,3.10
2023-05-14T21:10:07.675Z,3.90
2023-05-14T21:12:34.218Z,3.53
2023-05-14T21:15:00.764Z,3.80
2023-05-14T21:17:27.735Z,4.13
2023-05-14T21:19:54.310Z,3.47
2023-05-14T21:22:22.015Z,4.23
2023-05-14T21:24:50.315Z,3.50
2023-05-14T21:27:16.993Z,3.20
2023-05-14T21:29:46.171Z,3.50
2023-05-14T21:32:13.100Z,3.50
2023-05-14T21:34:39.694Z,3.93
2023-05-14T21:37:06.741Z,3.20
2023-05-14T21:39:33.298Z,3.70
2023-05-14T21:41:59.841Z,4.30
2023-05-14T21:44:26.404Z,4.83
2023-05-14T21:46:52.963Z,5.10
2023-05-14T21:49:19.510Z,4.33
2023-05-14T21:51:46.621Z,4.47
2023-05-14T21:54:14.002Z,4.53
2023-05-14T21:56:40.735Z,4.90
2023-05-14T21:59:07.291Z,4.27
2023-05-14T22:01:38.575Z,4.90
2023-05-14T22:04:12.608Z,4.30
2023-05-14T22:06:39.410Z,4.40
2023-05-14T22:09:05.998Z,4.20
2023-05-14T22:11:32.560Z,4.53
2023-05-14T22:13:59.085Z,4.10
2023-05-14T22:16:26.786Z,4.23
2023-05-14T22:18:53.942Z,4.00
2023-05-14T22:21:20.620Z,4.57
2023-05-14T22:23:47.913Z,4.43
2023-05-14T22:26:14.528Z,4.00
2023-05-14T22:28:42.918Z,5.57
2023-05-14T22:31:10.369Z,4.67
2023-05-14T22:33:36.947Z,4.87
2023-05-14T22:36:04.170Z,4.23
2023-05-14T22:38:30.735Z,4.73
2023-05-14T22:40:57.288Z,5.37
2023-05-14T22:43:23.890Z,5.97
2023-05-14T22:45:50.765Z,5.17
2023-05-14T22:48:17.764Z,4.93
2023-05-14T22:50:44.610Z,5.43
2023-05-14T22:53:11.171Z,5.23
2023-05-14T22:55:38.210Z,5.07
2023-05-14T22:58:05.519Z,5.43
2023-05-14T23:00:32.055Z,5.30
2023-05-14T23:02:58.706Z,5.30
2023-05-14T23:05:25.801Z,5.80
2023-05-14T23:07:53.663Z,5.37
2023-05-14T23:10:20.227Z,5.43
2023-05-14T23:12:47.558Z,4.83
2023-05-14T23:15:14.206Z,5.00
2023-05-14T23:17:40.766Z,5.13
2023-05-14T23:20:10.594Z,5.80
2023-05-14T23:22:37.112Z,5.30
2023-05-14T23:25:04.286Z,5.13
2023-05-14T23:27:31.058Z,5.27
2023-05-14T23:29:57.614Z,4.77
2023-05-14T23:32:24.210Z,5.17
2023-05-14T23:34:51.037Z,5.17
2023-05-14T23:37:17.932Z,5.17
2023-05-14T23:39:44.583Z,5.10
2023-05-14T23:42:11.145Z,5.47
2023-05-14T23:44:37.714Z,5.50
2023-05-14T23:47:05.465Z,4.90
2023-05-14T23:49:32.153Z,4.57
2023-05-14T23:51:58.739Z,4.97
2023-05-14T23:54:25.415Z,4.93
2023-05-14T23:56:52.557Z,5.17
2023-05-14T23:59:19.124Z,5.50
